createdAt,value
2023-04-01T00:00:21.843Z,100523.91
2023-04-01T00:02:48.566Z,100517.72
2023-04-01T00:05:15.273Z,100513.44
2023-04-01T00:07:41.943Z,100512.00
2023-04-01T00:10:09.156Z,100518.47
2023-04-01T00:12:35.704Z,100521.75
2023-04-01T00:15:02.172Z,100516.00
2023-04-01T00:17:28.632Z,100501.63
2023-04-01T00:19:58.201Z,100513.19
2023-04-01T00:22:24.921Z,100512.09
2023-04-01T00:24:51.603Z,100514.66
2023-04-01T00:27:18.067Z,100505.03
2023-04-01T00:29:44.912Z,100502.28
2023-04-01T00:32:11.645Z,100499.00
2023-04-01T00:34:38.686Z,100508.25
2023-04-01T00:37:05.166Z,100520.94
2023-04-01T00:39:33.287Z,100514.13
2023-04-01T00:42:00.051Z,100513.53
2023-04-01T00:44:27.740Z,100512.56
2023-04-01T00:46:54.185Z,100520.47
2023-04-01T00:49:21.576Z,100516.06
2023-04-01T00:51:49.075Z,100496.09
2023-04-01T00:54:15.914Z,100490.50
2023-04-01T00:56:56.725Z,100490.50
2023-04-01T00:59:24.390Z,100494.13
2023-04-01T01:01:51.172Z,100489.66
2023-04-01T01:04:31.354Z,100489.66
2023-04-01T01:07:00.940Z,100491.59
2023-04-01T01:09:30.348Z,100490.72
2023-04-01T01:12:11.439Z,100500.72
2023-04-01T01:14:37.826Z,100495.88
2023-04-01T01:17:21.148Z,100492.00
2023-04-01T01:19:49.290Z,100491.06
2023-04-01T01:22:48.160Z,100495.81
2023-04-01T01:25:19.357Z,100492.56
2023-04-01T01:27:49.107Z,100483.06
2023-04-01T01:30:33.906Z,100476.84
2023-04-01T01:33:18.887Z,100468.97
2023-04-01T01:35:49.532Z,100470.78
2023-04-01T01:38:19.994Z,100470.78
2023-04-01T01:40:47.221Z,100468.34
2023-04-01T01:43:14.865Z,100464.13
2023-04-01T01:45:42.243Z,100449.16
2023-04-01T01:48:08.703Z,100447.72
2023-04-01T01:50:36.242Z,100454.41
2023-04-01T01:53:06.590Z,100467.28
2023-04-01T01:55:37.464Z,100461.25
2023-04-01T01:58:06.536Z,100470.13
2023-04-01T02:00:33.307Z,100471.81
2023-04-01T02:02:59.880Z,100463.78
2023-04-01T02:05:26.846Z,100463.78
2023-04-01T02:07:56.497Z,100465.88
2023-04-01T02:10:23.106Z,100460.88
2023-04-01T02:12:49.528Z,100455.88
2023-04-01T02:15:15.976Z,100467.69
2023-04-01T02:17:43.968Z,100465.03
2023-04-01T02:20:12.612Z,100466.13
2023-04-01T02:22:40.109Z,100459.06
2023-04-01T02:25:10.744Z,100465.25
2023-04-01T02:27:37.264Z,100467.19
2023-04-01T02:30:03.971Z,100473.53
2023-04-01T02:32:30.960Z,100476.31
2023-04-01T02:34:57.601Z,100472.91
2023-04-01T02:37:23.992Z,100481.94
2023-04-01T02:39:50.412Z,100468.78
2023-04-01T02:42:16.788Z,100464.44
2023-04-01T02:44:43.221Z,100472.44
2023-04-01T02:47:09.678Z,100484.25
2023-04-01T02:49:36.230Z,100477.28
2023-04-01T02:52:02.598Z,100475.59
2023-04-01T02:54:29.007Z,100482.06
2023-04-01T02:56:55.431Z,100482.44
2023-04-01T02:59:22.068Z,100483.63
2023-04-01T03:01:48.493Z,100480.22
2023-04-01T03:04:14.944Z,100477.06
2023-04-01T03:06:41.370Z,100476.44
2023-04-01T03:09:07.844Z,100472.44
2023-04-01T03:11:34.272Z,100461.81
2023-04-01T03:14:00.732Z,100460.00
2023-04-01T03:16:27.161Z,100457.88
2023-04-01T03:18:54.271Z,100454.81
2023-04-01T03:21:21.696Z,100471.72
2023-04-01T03:23:48.128Z,100478.78
2023-04-01T03:26:14.697Z,100484.59
2023-04-01T03:28:41.132Z,100488.19
2023-04-01T03:31:07.612Z,100490.09
2023-04-01T03:33:34.175Z,100498.72
2023-04-01T03:36:00.620Z,100488.50
2023-04-01T03:38:27.053Z,100486.19
2023-04-01T03:40:53.449Z,100487.22
2023-04-01T03:43:19.897Z,100490.53
2023-04-01T03:45:49.898Z,100491.06
2023-04-01T03:48:16.323Z,100489.59
2023-04-01T03:50:42.925Z,100487.78
2023-04-01T03:53:09.323Z,100487.78
2023-04-01T03:55:38.985Z,100492.53
2023-04-01T03:58:06.106Z,100491.06
2023-04-01T04:00:33.638Z,100493.56
2023-04-01T04:03:00.383Z,100492.44
2023-04-01T04:05:27.297Z,100486.59
2023-04-01T04:07:54.037Z,100485.84
2023-04-01T04:10:20.588Z,100485.09
2023-04-01T04:12:46.978Z,100489.41
2023-04-01T04:15:13.381Z,100481.88
2023-04-01T04:17:39.894Z,100481.66
2023-04-01T04:20:06.562Z,100486.13
2023-04-01T04:22:32.977Z,100483.44
2023-04-01T04:24:59.437Z,100483.44
2023-04-01T04:27:25.913Z,100487.22
2023-04-01T04:29:52.313Z,100491.09
2023-04-01T04:32:18.684Z,100486.59
2023-04-01T04:34:45.108Z,100491.19
2023-04-01T04:37:11.569Z,100490.34
2023-04-01T04:39:38.104Z,100501.88
2023-04-01T04:42:04.655Z,100499.19
2023-04-01T04:44:31.087Z,100493.38
2023-04-01T04:46:58.598Z,100508.16
2023-04-01T04:49:25.540Z,100509.34
2023-04-01T04:51:53.320Z,100511.50
2023-04-01T04:54:19.744Z,100527.97
2023-04-01T04:56:46.221Z,100528.19
2023-04-01T04:59:13.541Z,100516.88
2023-04-01T05:01:40.130Z,100517.88
2023-04-01T05:04:06.771Z,100503.44
2023-04-01T05:06:33.200Z,100495.44
2023-04-01T05:08:59.575Z,100496.28
2023-04-01T05:11:27.605Z,100497.13
2023-04-01T05:13:54.042Z,100501.72
2023-04-01T05:16:21.304Z,100497.84
2023-04-01T05:18:47.885Z,100500.06
2023-04-01T05:21:14.965Z,100499.13
2023-04-01T05:23:41.478Z,100506.91
2023-04-01T05:26:08.640Z,100520.78
2023-04-01T05:28:35.250Z,100524.03
2023-04-01T05:31:02.098Z,100522.84
2023-04-01T05:33:28.809Z,100524.31
2023-04-01T05:35:55.624Z,100532.97
2023-04-01T05:38:22.152Z,100525.69
2023-04-01T05:40:48.605Z,100513.06
2023-04-01T05:43:15.045Z,100514.56
2023-04-01T05:45:41.553Z,100505.44
2023-04-01T05:48:08.045Z,100521.47
2023-04-01T05:50:34.527Z,100530.84
2023-04-01T05:53:00.888Z,100537.53
2023-04-01T05:55:27.297Z,100533.44
2023-04-01T05:57:53.773Z,100542.09
2023-04-01T06:00:21.048Z,100540.16
2023-04-01T06:02:47.750Z,100540.16
2023-04-01T06:05:19.341Z,100542.34
2023-04-01T06:07:45.938Z,100549.88
2023-04-01T06:10:19.365Z,100551.03
2023-04-01T06:12:53.596Z,100553.84
2023-04-01T06:15:20.046Z,100562.97
2023-04-01T06:17:55.983Z,100566.66
2023-04-01T06:20:25.460Z,100570.09
2023-04-01T06:22:51.881Z,100573.72
2023-04-01T06:25:37.127Z,100581.03
2023-04-01T06:28:22.400Z,100584.56
2023-04-01T06:30:50.384Z,100565.22
2023-04-01T06:33:40.045Z,100568.75
2023-04-01T06:36:16.271Z,100573.84
2023-04-01T06:38:42.777Z,100578.91
2023-04-01T06:41:15.179Z,100571.72
2023-04-01T06:43:51.286Z,100579.59
2023-04-01T06:46:46.744Z,100576.84
2023-04-01T06:49:31.775Z,100581.09
2023-04-01T06:52:03.879Z,100593.22
2023-04-01T06:54:34.722Z,100596.31
2023-04-01T06:57:19.818Z,100593.59
2023-04-01T06:59:46.321Z,100596.19
2023-04-01T07:02:21.905Z,100596.84
2023-04-01T07:04:49.175Z,100591.25
2023-04-01T07:07:15.674Z,100589.75
2023-04-01T07:09:43.099Z,100586.13
2023-04-01T07:12:16.912Z,100586.03
2023-04-01T07:14:43.376Z,100587.31
2023-04-01T07:17:10.359Z,100591.31
2023-04-01T07:19:46.393Z,100577.00
2023-04-01T07:22:28.982Z,100590.91
2023-04-01T07:24:55.729Z,100599.75
2023-04-01T07:27:22.184Z,100603.25
2023-04-01T07:29:48.558Z,100609.22
2023-04-01T07:32:15.179Z,100606.31
2023-04-01T07:35:01.794Z,100607.53
2023-04-01T07:37:37.326Z,100611.97
2023-04-01T07:40:11.704Z,100619.91
2023-04-01T07:42:42.418Z,100612.38
2023-04-01T07:45:17.846Z,100611.69
2023-04-01T07:47:53.916Z,100621.44
2023-04-01T07:50:27.417Z,100605.22
2023-04-01T07:53:12.666Z,100606.94
2023-04-01T07:55:42.121Z,100621.63
2023-04-01T07:58:17.252Z,100623.06
2023-04-01T08:00:45.666Z,100631.56
2023-04-01T08:03:15.495Z,100639.88
2023-04-01T08:05:44.529Z,100641.59
2023-04-01T08:08:11.941Z,100628.13
2023-04-01T08:10:42.190Z,100627.88
2023-04-01T08:13:11.750Z,100630.13
2023-04-01T08:15:50.759Z,100636.50
2023-04-01T08:18:17.159Z,100630.69
2023-04-01T08:20:46.729Z,100622.41
2023-04-01T08:23:27.193Z,100637.97
2023-04-01T08:25:56.673Z,100639.28
2023-04-01T08:28:31.950Z,100624.06
2023-04-01T08:31:10.442Z,100630.00
2023-04-01T08:33:36.893Z,100627.69
2023-04-01T08:36:10.830Z,100626.69
2023-04-01T08:38:56.233Z,100622.44
2023-04-01T08:41:22.642Z,100620.75
2023-04-01T08:44:07.627Z,100621.31
2023-04-01T08:46:52.670Z,100632.47
2023-04-01T08:49:23.137Z,100624.09
2023-04-01T08:51:56.655Z,100624.63
2023-04-01T08:54:30.577Z,100629.88
2023-04-01T08:56:57.119Z,100642.09
2023-04-01T08:59:23.518Z,100635.41
2023-04-01T09:02:08.756Z,100628.72
2023-04-01T09:04:35.302Z,100617.31
2023-04-01T09:07:20.580Z,100624.78
2023-04-01T09:10:13.284Z,100634.97
2023-04-01T09:12:41.746Z,100636.38
2023-04-01T09:15:26.927Z,100627.81
2023-04-01T09:17:53.495Z,100627.66
2023-04-01T09:20:47.037Z,100628.34
2023-04-01T09:23:25.428Z,100635.81
2023-04-01T09:25:51.768Z,100624.56
2023-04-01T09:28:18.157Z,100628.81
2023-04-01T09:31:00.134Z,100633.03
2023-04-01T09:33:45.421Z,100614.38
2023-04-01T09:36:32.064Z,100617.47
2023-04-01T09:39:00.039Z,100611.25
2023-04-01T09:41:33.546Z,100617.06
2023-04-01T09:44:04.870Z,100619.97
2023-04-01T09:46:46.800Z,100627.59
2023-04-01T09:49:39.685Z,100624.41
2023-04-01T09:52:06.182Z,100628.97
2023-04-01T09:54:37.371Z,100621.56
2023-04-01T09:57:19.102Z,100612.28
2023-04-01T10:00:00.999Z,100609.59
2023-04-01T10:02:51.835Z,100610.28
2023-04-01T10:05:36.731Z,100603.56
2023-04-01T10:08:21.774Z,100603.97
2023-04-01T10:10:52.779Z,100597.41
2023-04-01T10:13:19.736Z,100602.94
2023-04-01T10:16:10.032Z,100595.53
2023-04-01T10:18:39.235Z,100586.94
2023-04-01T10:21:05.569Z,100580.69
2023-04-01T10:23:50.946Z,100583.25
2023-04-01T10:26:17.334Z,100588.00
2023-04-01T10:29:01.070Z,100587.53
2023-04-01T10:31:30.768Z,100583.84
2023-04-01T10:33:57.206Z,100587.88
2023-04-01T10:36:29.890Z,100575.91
2023-04-01T10:38:56.973Z,100572.03
2023-04-01T10:41:35.420Z,100574.75
2023-04-01T10:44:17.113Z,100571.84
2023-04-01T10:47:03.893Z,100573.63
2023-04-01T10:49:33.385Z,100566.06
2023-04-01T10:52:18.129Z,100558.22
2023-04-01T10:54:47.123Z,100551.28
2023-04-01T10:57:16.685Z,100554.19
2023-04-01T11:00:01.756Z,100550.50
2023-04-01T11:02:43.406Z,100556.56
2023-04-01T11:05:10.998Z,100561.34
2023-04-01T11:07:37.446Z,100559.75
2023-04-01T11:10:22.034Z,100561.41
2023-04-01T11:12:54.313Z,100555.81
2023-04-01T11:15:42.330Z,100547.41
2023-04-01T11:18:14.803Z,100555.69
2023-04-01T11:20:44.364Z,100547.03
2023-04-01T11:23:26.070Z,100550.56
2023-04-01T11:26:11.808Z,100554.28
2023-04-01T11:28:38.266Z,100547.41
2023-04-01T11:31:16.952Z,100544.81
2023-04-01T11:33:57.694Z,100547.59
2023-04-01T11:36:37.105Z,100539.34
2023-04-01T11:39:22.526Z,100538.63
2023-04-01T11:41:48.990Z,100526.47
2023-04-01T11:44:21.316Z,100520.19
2023-04-01T11:46:50.292Z,100523.88
2023-04-01T11:49:25.000Z,100523.53
2023-04-01T11:51:54.559Z,100524.38
2023-04-01T11:54:40.824Z,100530.59
2023-04-01T11:57:07.244Z,100528.19
2023-04-01T11:59:33.716Z,100516.50
2023-04-01T12:02:01.119Z,100525.56
2023-04-01T12:04:27.673Z,100533.44
2023-04-01T12:07:20.249Z,100528.75
2023-04-01T12:09:49.704Z,100531.38
2023-04-01T12:12:18.963Z,100524.34
2023-04-01T12:14:45.596Z,100526.09
2023-04-01T12:17:26.019Z,100529.50
2023-04-01T12:19:55.684Z,100530.56
2023-04-01T12:22:28.176Z,100530.47
2023-04-01T12:25:03.629Z,100524.91
2023-04-01T12:27:39.201Z,100522.97
2023-04-01T12:30:08.404Z,100526.53
2023-04-01T12:32:53.650Z,100524.22
2023-04-01T12:35:24.850Z,100528.09
2023-04-01T12:37:51.272Z,100528.84
2023-04-01T12:40:21.341Z,100543.28
2023-04-01T12:42:56.797Z,100538.72
2023-04-01T12:45:33.565Z,100542.47
2023-04-01T12:48:06.799Z,100524.81
2023-04-01T12:50:33.323Z,100528.34
2023-04-01T12:53:04.007Z,100528.59
2023-04-01T12:55:37.695Z,100533.53
2023-04-01T12:58:04.073Z,100531.44
2023-04-01T13:00:39.653Z,100541.38
2023-04-01T13:03:15.457Z,100533.28
2023-04-01T13:06:00.716Z,100535.97
2023-04-01T13:08:39.705Z,100534.44
2023-04-01T13:11:26.221Z,100525.94
2023-04-01T13:13:55.922Z,100518.28
2023-04-01T13:16:22.297Z,100514.56
2023-04-01T13:18:58.012Z,100517.97
2023-04-01T13:21:33.583Z,100511.88
2023-04-01T13:24:29.418Z,100508.34
2023-04-01T13:26:58.974Z,100507.03
2023-04-01T13:29:36.565Z,100502.25
2023-04-01T13:32:15.606Z,100494.78
2023-04-01T13:34:51.309Z,100498.47
2023-04-01T13:37:23.868Z,100497.09
2023-04-01T13:39:53.855Z,100510.22
2023-04-01T13:42:28.214Z,100497.63
2023-04-01T13:44:56.766Z,100489.09
2023-04-01T13:47:25.295Z,100488.72
2023-04-01T13:50:07.062Z,100492.91
2023-04-01T13:53:02.841Z,100499.13
2023-04-01T13:55:35.041Z,100490.34
2023-04-01T13:58:10.827Z,100488.03
2023-04-01T14:00:40.386Z,100478.66
2023-04-01T14:03:16.254Z,100480.91
2023-04-01T14:05:45.533Z,100468.97
2023-04-01T14:08:11.994Z,100461.56
2023-04-01T14:11:24.056Z,100461.25
2023-04-01T14:13:59.514Z,100461.25
2023-04-01T14:16:41.353Z,100453.09
2023-04-01T14:19:07.862Z,100445.53
2023-04-01T14:21:52.351Z,100435.78
2023-04-01T14:24:18.770Z,100435.44
2023-04-01T14:26:51.417Z,100429.13
2023-04-01T14:29:44.076Z,100421.44
2023-04-01T14:32:29.285Z,100412.44
2023-04-01T14:35:11.737Z,100413.72
2023-04-01T14:37:38.183Z,100419.03
2023-04-01T14:40:26.121Z,100415.25
2023-04-01T14:43:11.286Z,100406.47
2023-04-01T14:45:42.169Z,100400.78
2023-04-01T14:48:15.140Z,100399.34
2023-04-01T14:50:46.227Z,100394.31
2023-04-01T14:53:14.343Z,100403.50
2023-04-01T14:55:43.746Z,100401.19
2023-04-01T14:58:10.362Z,100400.03
2023-04-01T15:00:55.644Z,100400.91
2023-04-01T15:03:42.379Z,100396.59
2023-04-01T15:06:11.959Z,100394.91
2023-04-01T15:08:56.910Z,100393.81
2023-04-01T15:11:29.293Z,100386.50
2023-04-01T15:14:14.517Z,100393.03
2023-04-01T15:16:53.261Z,100386.19
2023-04-01T15:19:25.522Z,100390.13
2023-04-01T15:21:56.838Z,100402.56
2023-04-01T15:24:40.307Z,100400.03
2023-04-01T15:27:25.387Z,100387.25
2023-04-01T15:30:02.338Z,100395.03
2023-04-01T15:32:47.328Z,100394.56
2023-04-01T15:35:39.916Z,100393.75
2023-04-01T15:38:12.228Z,100394.22
2023-04-01T15:40:42.512Z,100389.13
2023-04-01T15:43:23.201Z,100387.72
2023-04-01T15:45:58.810Z,100383.13
2023-04-01T15:48:31.351Z,100393.34
2023-04-01T15:51:27.333Z,100397.03
2023-04-01T15:53:59.682Z,100398.03
2023-04-01T15:56:31.551Z,100394.31
2023-04-01T15:59:07.355Z,100391.94
2023-04-01T16:01:33.753Z,100391.25
2023-04-01T16:04:00.366Z,100396.50
2023-04-01T16:06:28.672Z,100388.94
2023-04-01T16:09:04.589Z,100389.50
2023-04-01T16:11:41.892Z,100378.03
2023-04-01T16:14:27.238Z,100381.97
2023-04-01T16:17:12.427Z,100383.81
2023-04-01T16:19:42.206Z,100380.56
2023-04-01T16:22:16.473Z,100378.34
2023-04-01T16:24:46.657Z,100371.00
2023-04-01T16:27:52.522Z,100368.63
2023-04-01T16:30:39.259Z,100363.44
2023-04-01T16:33:08.849Z,100360.22
2023-04-01T16:35:43.061Z,100365.22
2023-04-01T16:38:34.005Z,100366.38
2023-04-01T16:41:07.713Z,100363.06
2023-04-01T16:43:37.280Z,100355.13
2023-04-01T16:46:03.739Z,100352.91
2023-04-01T16:48:48.926Z,100354.22
2023-04-01T16:51:18.546Z,100355.88
2023-04-01T16:53:46.957Z,100355.13
2023-04-01T16:56:23.535Z,100349.63
2023-04-01T16:58:59.175Z,100350.34
2023-04-01T17:01:27.316Z,100349.38
2023-04-01T17:04:14.032Z,100362.44
2023-04-01T17:06:40.588Z,100363.34
2023-04-01T17:09:25.794Z,100362.25
2023-04-01T17:11:58.069Z,100359.97
2023-04-01T17:14:42.767Z,100358.75
2023-04-01T17:17:20.596Z,100359.72
2023-04-01T17:19:53.094Z,100358.06
2023-04-01T17:22:32.405Z,100364.59
2023-04-01T17:25:11.614Z,100368.38
2023-04-01T17:27:43.544Z,100370.69
2023-04-01T17:30:09.955Z,100371.97
2023-04-01T17:32:46.566Z,100371.97
2023-04-01T17:35:13.389Z,100381.03
2023-04-01T17:37:49.608Z,100366.88
2023-04-01T17:40:31.793Z,100371.41
2023-04-01T17:43:18.790Z,100371.56
2023-04-01T17:45:51.105Z,100374.41
2023-04-01T17:48:34.221Z,100383.63
2023-04-01T17:51:18.701Z,100381.34
2023-04-01T17:54:23.652Z,100376.13
2023-04-01T17:56:50.751Z,100378.13
2023-04-01T17:59:29.591Z,100373.72
2023-04-01T18:02:05.591Z,100373.72
2023-04-01T18:04:35.510Z,100374.03
2023-04-01T18:07:01.912Z,100384.78
2023-04-01T18:09:44.776Z,100379.41
2023-04-01T18:12:14.290Z,100389.16
2023-04-01T18:14:46.878Z,100386.47
2023-04-01T18:17:24.912Z,100386.31
2023-04-01T18:20:11.243Z,100384.19
2023-04-01T18:22:42.376Z,100382.34
2023-04-01T18:25:20.752Z,100385.03
2023-04-01T18:27:48.733Z,100379.81
2023-04-01T18:30:15.322Z,100384.91
2023-04-01T18:32:45.997Z,100383.63
2023-04-01T18:35:17.760Z,100379.94
2023-04-01T18:37:48.846Z,100389.41
2023-04-01T18:40:25.223Z,100387.84
2023-04-01T18:42:55.210Z,100389.00
2023-04-01T18:45:32.792Z,100391.25
2023-04-01T18:48:02.335Z,100390.69
2023-04-01T18:50:29.976Z,100381.38
2023-04-01T18:53:16.718Z,100385.63
2023-04-01T18:55:44.166Z,100384.38
2023-04-01T18:58:43.107Z,100381.97
2023-04-01T19:01:15.778Z,100385.09
2023-04-01T19:04:01.214Z,100384.53
2023-04-01T19:06:35.245Z,100383.97
2023-04-01T19:09:11.312Z,100384.97
2023-04-01T19:11:40.384Z,100384.97
2023-04-01T19:14:13.021Z,100382.56
2023-04-01T19:16:48.824Z,100380.16
2023-04-01T19:19:19.417Z,100379.75
2023-04-01T19:21:48.059Z,100389.06
2023-04-01T19:24:14.823Z,100383.25
2023-04-01T19:26:47.368Z,100390.03
2023-04-01T19:29:26.626Z,100394.97
2023-04-01T19:31:56.208Z,100397.06
2023-04-01T19:34:28.182Z,100400.06
2023-04-01T19:36:56.613Z,100410.22
2023-04-01T19:39:26.234Z,100406.13
2023-04-01T19:41:56.832Z,100404.56
2023-04-01T19:44:30.317Z,100405.13
2023-04-01T19:46:58.921Z,100405.69
2023-04-01T19:49:44.296Z,100404.25
2023-04-01T19:52:41.306Z,100410.75
2023-04-01T19:55:13.652Z,100404.81
2023-04-01T19:57:52.446Z,100409.47
2023-04-01T20:00:25.916Z,100406.38
2023-04-01T20:02:56.053Z,100403.00
2023-04-01T20:05:27.153Z,100404.00
2023-04-01T20:07:53.961Z,100399.91
2023-04-01T20:10:24.177Z,100410.38
2023-04-01T20:13:09.433Z,100410.81
2023-04-01T20:15:37.188Z,100415.88
2023-04-01T20:18:05.268Z,100416.59
2023-04-01T20:20:32.011Z,100418.28
2023-04-01T20:23:01.235Z,100419.25
2023-04-01T20:25:33.315Z,100423.75
2023-04-01T20:28:00.019Z,100432.50
2023-04-01T20:30:29.509Z,100439.53
2023-04-01T20:32:55.970Z,100439.38
2023-04-01T20:35:34.793Z,100446.25
2023-04-01T20:38:19.960Z,100448.34
2023-04-01T20:40:54.085Z,100441.56
2023-04-01T20:43:29.792Z,100448.63
2023-04-01T20:46:00.253Z,100448.63
2023-04-01T20:48:29.736Z,100446.81
2023-04-01T20:51:00.063Z,100447.63
2023-04-01T20:53:33.071Z,100445.69
2023-04-01T20:55:59.468Z,100449.06
2023-04-01T20:58:44.724Z,100442.75
2023-04-01T21:01:30.000Z,100443.72
2023-04-01T21:04:02.541Z,100437.38
2023-04-01T21:06:33.325Z,100443.59
2023-04-01T21:09:18.702Z,100441.47
2023-04-01T21:12:01.718Z,100441.78
2023-04-01T21:14:37.210Z,100441.94
2023-04-01T21:17:06.806Z,100445.22
2023-04-01T21:19:33.216Z,100449.88
2023-04-01T21:22:18.049Z,100451.91
2023-04-01T21:24:47.602Z,100453.34
2023-04-01T21:27:32.678Z,100450.94
2023-04-01T21:29:59.210Z,100449.59
2023-04-01T21:32:34.515Z,100449.44
2023-04-01T21:35:00.940Z,100437.13
2023-04-01T21:37:42.481Z,100438.53
2023-04-01T21:40:18.254Z,100432.06
2023-04-01T21:42:50.687Z,100429.06
2023-04-01T21:45:36.314Z,100420.88
2023-04-01T21:48:26.085Z,100420.75
2023-04-01T21:51:11.383Z,100416.91
2023-04-01T21:53:37.767Z,100408.84
2023-04-01T21:56:07.246Z,100398.09
2023-04-01T21:58:52.359Z,100421.28
2023-04-01T22:01:24.962Z,100426.50
2023-04-01T22:03:55.814Z,100421.84
2023-04-01T22:06:39.325Z,100428.91
2023-04-01T22:09:13.970Z,100442.34
2023-04-01T22:11:40.404Z,100452.13
2023-04-01T22:14:09.675Z,100450.28
2023-04-01T22:16:36.106Z,100457.50
2023-04-01T22:19:07.900Z,100458.47
2023-04-01T22:21:40.717Z,100449.44
2023-04-01T22:24:26.238Z,100448.59
2023-04-01T22:27:11.625Z,100454.94
2023-04-01T22:29:57.367Z,100449.56
2023-04-01T22:32:25.822Z,100445.19
2023-04-01T22:34:55.442Z,100438.09
2023-04-01T22:37:24.480Z,100439.13
2023-04-01T22:39:54.884Z,100437.41
2023-04-01T22:42:21.754Z,100446.47
2023-04-01T22:45:07.112Z,100455.69
2023-04-01T22:47:37.905Z,100431.63
2023-04-01T22:50:06.750Z,100429.91
2023-04-01T22:52:35.198Z,100428.94
2023-04-01T22:55:04.497Z,100430.78
2023-04-01T22:57:31.376Z,100428.09
2023-04-01T23:00:09.454Z,100431.75
2023-04-01T23:02:56.179Z,100424.84
2023-04-01T23:05:22.652Z,100426.69
2023-04-01T23:07:57.714Z,100431.19
2023-04-01T23:10:27.269Z,100424.13
2023-04-01T23:12:54.894Z,100421.44
2023-04-01T23:15:21.362Z,100419.72
2023-04-01T23:17:47.870Z,100425.09
2023-04-01T23:20:20.937Z,100419.59
2023-04-01T23:22:51.552Z,100408.00
2023-04-01T23:25:37.009Z,100409.69
2023-04-01T23:28:15.973Z,100407.00
2023-04-01T23:30:42.489Z,100404.31
2023-04-01T23:33:11.736Z,100401.50
2023-04-01T23:35:50.675Z,100413.94
2023-04-01T23:38:17.425Z,100406.03
2023-04-01T23:40:43.837Z,100405.19
2023-04-01T23:43:22.627Z,100400.91
2023-04-01T23:45:49.189Z,100391.88
2023-04-01T23:48:16.311Z,100380.13
2023-04-01T23:50:42.797Z,100395.13
2023-04-01T23:53:16.778Z,100406.28
2023-04-01T23:55:43.313Z,100397.09
2023-04-01T23:58:11.888Z,100423.00
